createdAt,value
2022-12-23T00:01:05.850Z,96008.28
2022-12-23T00:05:06.090Z,96023.66
2022-12-23T00:09:06.255Z,96006.34
2022-12-23T00:13:18.791Z,96014.84
2022-12-23T00:17:22.922Z,96004.88
2022-12-23T00:21:24.221Z,96002.72
2022-12-23T00:25:40.366Z,95993.13
2022-12-23T00:29:40.912Z,95982.44
2022-12-23T00:33:46.232Z,95988.31
2022-12-23T00:37:46.286Z,95992.47
2022-12-23T00:41:59.745Z,95980.69
2022-12-23T00:46:00.004Z,95986.50
2022-12-23T00:50:02.948Z,95984.66
2022-12-23T00:54:03.047Z,95977.75
2022-12-23T00:58:03.062Z,95975.34
2022-12-23T01:02:18.289Z,95980.94
2022-12-23T01:06:21.554Z,95976.09
2022-12-23T01:10:21.584Z,95969.16
2022-12-23T01:14:22.821Z,95963.22
2022-12-23T01:18:22.889Z,95967.50
2022-12-23T01:22:25.649Z,95969.66
2022-12-23T01:26:25.746Z,95971.81
2022-12-23T01:30:26.028Z,95960.69
2022-12-23T01:34:31.066Z,95956.88
2022-12-23T01:38:38.153Z,95959.53
2022-12-23T01:42:47.477Z,95949.91
2022-12-23T01:46:47.695Z,95958.31
2022-12-23T01:50:54.263Z,95959.41
2022-12-23T01:54:58.928Z,95954.66
2022-12-23T01:59:03.448Z,95950.88
2022-12-23T02:03:16.053Z,95945.84
2022-12-23T02:07:29.559Z,95960.38
2022-12-23T02:11:54.576Z,95959.28
2022-12-23T02:16:15.497Z,95965.84
2022-12-23T02:20:48.769Z,95951.88
2022-12-23T02:25:41.022Z,95947.94
2022-12-23T02:30:39.668Z,95966.31
2022-12-23T02:34:52.467Z,95945.88
2022-12-23T02:39:05.291Z,95968.03
2022-12-23T02:43:15.374Z,95947.75
2022-12-23T02:47:27.211Z,95953.53
2022-12-23T02:51:33.864Z,95955.56
2022-12-23T02:55:42.232Z,95957.22
2022-12-23T02:59:48.283Z,95951.72
2022-12-23T03:03:53.755Z,95943.91
2022-12-23T03:07:55.682Z,95948.28
2022-12-23T03:12:07.746Z,95938.19
2022-12-23T03:16:21.000Z,95950.34
2022-12-23T03:20:33.585Z,95953.50
2022-12-23T03:24:43.159Z,95949.94
2022-12-23T03:28:52.015Z,95955.00
2022-12-23T03:32:58.861Z,95946.75
2022-12-23T03:37:08.748Z,95894.44
2022-12-23T03:41:19.681Z,95952.69
2022-12-23T03:45:38.536Z,95954.47
2022-12-23T03:49:46.287Z,95942.09
2022-12-23T03:53:56.371Z,95960.25
2022-12-23T03:58:10.640Z,95955.38
2022-12-23T04:02:17.713Z,95955.94
2022-12-23T04:06:22.359Z,95957.69
2022-12-23T04:10:26.315Z,95964.13
2022-12-23T04:14:26.605Z,95965.16
2022-12-23T04:18:26.656Z,95968.13
2022-12-23T04:22:26.782Z,95979.81
2022-12-23T04:26:29.458Z,95938.56
2022-12-23T04:30:33.988Z,95945.41
2022-12-23T04:34:34.993Z,95971.94
2022-12-23T04:38:35.019Z,95966.19
2022-12-23T04:42:38.342Z,95971.28
2022-12-23T04:46:38.509Z,95952.34
2022-12-23T04:50:38.975Z,95958.88
2022-12-23T04:54:45.517Z,95961.03
2022-12-23T04:58:48.861Z,95974.19
2022-12-23T05:02:49.150Z,95975.31
2022-12-23T05:06:49.456Z,95948.59
2022-12-23T05:10:49.891Z,95946.06
2022-12-23T05:14:52.657Z,95971.69
2022-12-23T05:18:52.753Z,95985.09
2022-12-23T05:22:53.061Z,95989.34
2022-12-23T05:26:59.796Z,95989.53
2022-12-23T05:31:06.349Z,95987.41
2022-12-23T05:35:06.769Z,95990.03
2022-12-23T05:39:07.295Z,95954.91
2022-12-23T05:43:07.504Z,95980.03
2022-12-23T05:47:10.152Z,95999.91
2022-12-23T05:51:10.452Z,95976.03
2022-12-23T05:55:12.429Z,96013.84
2022-12-23T05:59:12.727Z,96017.63
2022-12-23T06:03:15.724Z,96023.22
2022-12-23T06:07:15.983Z,96019.03
2022-12-23T06:11:16.130Z,96003.31
2022-12-23T06:15:16.485Z,96027.25
2022-12-23T06:19:19.285Z,96025.50
2022-12-23T06:23:19.364Z,96000.91
2022-12-23T06:27:20.028Z,96030.59
2022-12-23T06:31:20.205Z,96006.72
2022-12-23T06:35:22.976Z,96054.81
2022-12-23T06:39:23.042Z,96052.66
2022-12-23T06:43:23.354Z,96049.56
2022-12-23T06:47:23.510Z,96058.44
2022-12-23T06:51:26.330Z,96071.47
2022-12-23T06:55:26.733Z,96064.44
2022-12-23T06:59:27.068Z,96080.25
2022-12-23T07:03:27.199Z,96087.78
2022-12-23T07:07:32.287Z,96094.91
2022-12-23T07:11:32.602Z,96095.13
2022-12-23T07:15:32.893Z,96095.81
2022-12-23T07:19:34.285Z,96109.56
2022-12-23T07:23:37.101Z,96107.06
2022-12-23T07:27:37.179Z,96109.69
2022-12-23T07:31:40.918Z,96117.53
2022-12-23T07:35:42.585Z,96117.97
2022-12-23T07:39:45.658Z,96130.78
2022-12-23T07:43:45.796Z,96136.34
2022-12-23T07:47:46.232Z,96140.88
2022-12-23T07:51:46.313Z,96128.06
2022-12-23T07:55:54.610Z,96135.50
2022-12-23T07:59:57.162Z,96095.47
2022-12-23T08:03:57.434Z,96141.31
2022-12-23T08:07:57.581Z,96156.03
2022-12-23T08:12:00.685Z,96149.25
2022-12-23T08:16:03.480Z,96150.00
2022-12-23T08:20:03.978Z,96155.31
2022-12-23T08:24:04.214Z,96151.28
2022-12-23T08:28:07.377Z,96172.28
2022-12-23T08:32:08.971Z,96154.75
2022-12-23T08:36:16.220Z,96160.47
2022-12-23T08:40:21.079Z,96167.47
2022-12-23T08:44:27.128Z,96090.69
2022-12-23T08:48:27.189Z,96176.13
2022-12-23T08:52:27.332Z,96183.19
2022-12-23T08:56:30.738Z,96195.22
2022-12-23T09:00:33.530Z,96200.56
2022-12-23T09:04:33.648Z,96207.03
2022-12-23T09:08:33.653Z,96204.81
2022-12-23T09:12:34.120Z,96186.78
2022-12-23T09:16:36.787Z,96207.63
2022-12-23T09:20:36.984Z,96194.47
2022-12-23T09:24:38.212Z,96195.56
2022-12-23T09:28:38.266Z,96202.50
2022-12-23T09:32:41.117Z,96197.50
2022-12-23T09:36:41.160Z,96201.19
2022-12-23T09:40:45.717Z,96176.84
2022-12-23T09:45:16.503Z,96191.44
2022-12-23T09:49:20.987Z,96159.59
2022-12-23T09:53:25.354Z,96176.22
2022-12-23T09:57:36.648Z,96177.41
2022-12-23T10:01:47.720Z,96165.81
2022-12-23T10:06:05.218Z,96142.91
2022-12-23T10:10:17.847Z,96167.69
2022-12-23T10:14:23.427Z,96161.75
2022-12-23T10:18:30.944Z,96178.97
2022-12-23T10:22:43.508Z,96182.97
2022-12-23T10:26:54.659Z,96189.84
2022-12-23T10:31:30.966Z,96182.97
2022-12-23T10:35:45.720Z,96183.25
2022-12-23T10:40:06.553Z,96123.41
2022-12-23T10:44:55.903Z,96184.78
2022-12-23T10:49:06.467Z,96186.97
2022-12-23T10:53:14.524Z,96190.25
2022-12-23T10:57:20.608Z,96172.09
2022-12-23T11:01:27.156Z,96175.22
2022-12-23T11:05:32.255Z,96178.97
2022-12-23T11:09:42.571Z,96191.06
2022-12-23T11:13:48.359Z,96180.16
2022-12-23T11:18:06.877Z,96187.31
2022-12-23T11:22:06.858Z,96177.09
2022-12-23T11:26:11.104Z,96179.22
2022-12-23T11:30:22.182Z,96174.34
2022-12-23T11:34:26.547Z,96164.44
2022-12-23T11:38:26.729Z,96124.41
2022-12-23T11:42:32.795Z,96160.91
2022-12-23T11:46:37.562Z,96132.81
2022-12-23T11:50:39.581Z,96144.19
2022-12-23T11:54:40.715Z,96140.63
2022-12-23T11:58:52.480Z,96116.88
2022-12-23T12:02:59.493Z,96135.25
2022-12-23T12:07:00.782Z,96123.91
2022-12-23T12:11:09.002Z,96128.25
2022-12-23T12:15:27.774Z,96116.25
2022-12-23T12:19:38.990Z,96123.06
2022-12-23T12:23:47.115Z,96106.41
2022-12-23T12:27:55.247Z,96095.47
2022-12-23T12:32:00.143Z,96080.53
2022-12-23T12:36:16.542Z,96092.41
2022-12-23T12:40:33.253Z,96101.66
2022-12-23T12:44:45.614Z,96084.94
2022-12-23T12:48:54.125Z,96087.59
2022-12-23T12:53:05.074Z,96072.97
2022-12-23T12:57:05.297Z,96075.53
2022-12-23T13:01:30.403Z,96061.22
2022-12-23T13:05:54.499Z,96064.75
2022-12-23T13:10:06.517Z,96039.91
2022-12-23T13:14:21.382Z,96051.94
2022-12-23T13:18:41.504Z,96043.03
2022-12-23T13:22:42.850Z,96044.59
2022-12-23T13:27:02.074Z,96042.22
2022-12-23T13:31:14.626Z,96016.91
2022-12-23T13:35:35.116Z,95982.94
2022-12-23T13:39:52.992Z,96003.47
2022-12-23T13:44:05.343Z,96009.81
2022-12-23T13:48:30.178Z,96033.13
2022-12-23T13:52:52.962Z,96009.06
2022-12-23T13:57:08.591Z,96012.84
2022-12-23T14:01:37.499Z,96011.19
2022-12-23T14:05:41.120Z,96001.06
2022-12-23T14:09:42.129Z,95947.00
2022-12-23T14:13:47.859Z,95998.06
2022-12-23T14:18:10.977Z,95977.56
2022-12-23T14:22:45.976Z,95974.69
2022-12-23T14:27:33.724Z,95956.50
2022-12-23T14:31:40.118Z,95956.22
2022-12-23T14:36:15.779Z,95962.59
2022-12-23T14:41:12.703Z,95953.25
2022-12-23T14:45:44.142Z,95909.75
2022-12-23T14:49:46.681Z,95900.19
2022-12-23T14:54:19.775Z,95935.13
2022-12-23T14:58:49.179Z,95943.75
2022-12-23T15:02:49.498Z,95944.78
2022-12-23T15:06:56.155Z,95929.19
2022-12-23T15:11:00.278Z,95928.13
2022-12-23T15:15:04.740Z,95942.28
2022-12-23T15:19:19.969Z,95926.16
2022-12-23T15:23:20.648Z,95918.66
2022-12-23T15:27:27.682Z,95923.34
2022-12-23T15:31:34.146Z,95890.94
2022-12-23T15:35:38.410Z,95908.78
2022-12-23T15:39:43.941Z,95877.81
2022-12-23T15:43:47.725Z,95887.06
2022-12-23T15:47:48.949Z,95895.25
2022-12-23T15:52:15.232Z,95872.47
2022-12-23T15:56:27.098Z,95863.84
2022-12-23T16:00:41.439Z,95834.94
2022-12-23T16:04:42.309Z,95864.13
2022-12-23T16:08:42.501Z,95849.28
2022-12-23T16:12:44.338Z,95844.91
2022-12-23T16:16:47.304Z,95829.69
2022-12-23T16:20:51.598Z,95805.34
2022-12-23T16:25:01.904Z,95835.66
2022-12-23T16:29:04.273Z,95820.50
2022-12-23T16:33:09.991Z,95814.44
2022-12-23T16:37:11.025Z,95829.88
2022-12-23T16:41:11.103Z,95819.69
2022-12-23T16:45:16.297Z,95796.47
2022-12-23T16:49:25.510Z,95798.06
2022-12-23T16:53:28.639Z,95779.13
2022-12-23T16:57:28.676Z,95793.84
2022-12-23T17:01:33.994Z,95784.78
2022-12-23T17:05:36.788Z,95782.66
2022-12-23T17:09:37.288Z,95764.06
2022-12-23T17:13:37.447Z,95719.31
2022-12-23T17:17:39.022Z,95762.75
2022-12-23T17:21:44.726Z,95772.69
2022-12-23T17:25:44.782Z,95769.00
2022-12-23T17:29:45.159Z,95760.69
2022-12-23T17:33:45.279Z,95757.41
2022-12-23T17:37:48.832Z,95751.69
2022-12-23T17:41:50.224Z,95745.00
2022-12-23T17:45:51.886Z,95751.66
2022-12-23T17:49:53.996Z,95754.34
2022-12-23T17:53:59.389Z,95758.97
2022-12-23T17:57:59.705Z,95727.88
2022-12-23T18:01:59.785Z,95739.56
2022-12-23T18:06:02.286Z,95737.16
2022-12-23T18:10:05.261Z,95680.28
2022-12-23T18:14:06.576Z,95752.44
2022-12-23T18:18:22.008Z,95748.75
2022-12-23T18:22:29.371Z,95781.47
2022-12-23T18:26:32.156Z,95779.69
2022-12-23T18:30:32.454Z,95774.34
2022-12-23T18:34:32.736Z,95776.66
2022-12-23T18:38:32.780Z,95731.41
2022-12-23T18:42:35.484Z,95762.50
2022-12-23T18:46:36.011Z,95743.84
2022-12-23T18:50:39.181Z,95790.88
2022-12-23T18:54:39.357Z,95754.97
2022-12-23T18:58:42.162Z,95778.47
2022-12-23T19:02:42.331Z,95767.06
2022-12-23T19:06:43.665Z,95745.75
2022-12-23T19:10:44.432Z,95771.53
2022-12-23T19:14:47.968Z,95778.47
2022-12-23T19:18:50.043Z,95797.75
2022-12-23T19:22:51.397Z,95810.25
2022-12-23T19:26:51.572Z,95793.44
2022-12-23T19:30:54.525Z,95772.47
2022-12-23T19:34:54.804Z,95731.66
2022-12-23T19:38:55.182Z,95777.16
2022-12-23T19:42:55.224Z,95674.06
2022-12-23T19:46:57.946Z,95800.06
2022-12-23T19:51:02.885Z,95802.47
2022-12-23T19:55:03.061Z,95795.13
2022-12-23T19:59:03.199Z,95821.56
2022-12-23T20:03:06.092Z,95819.28
2022-12-23T20:07:06.376Z,95811.69
2022-12-23T20:11:12.995Z,95809.31
2022-12-23T20:15:13.785Z,95810.47
2022-12-23T20:19:16.925Z,95837.66
2022-12-23T20:23:17.038Z,95855.28
2022-12-23T20:27:20.106Z,95817.53
2022-12-23T20:31:26.143Z,95850.44
2022-12-23T20:35:29.535Z,95830.91
2022-12-23T20:39:29.833Z,95875.13
2022-12-23T20:43:30.275Z,95870.16
2022-12-23T20:47:30.417Z,95890.63
2022-12-23T20:51:33.228Z,95886.56
2022-12-23T20:55:35.036Z,95893.22
2022-12-23T20:59:35.711Z,95872.78
2022-12-23T21:03:36.465Z,95855.81
2022-12-23T21:07:40.023Z,95891.72
2022-12-23T21:11:44.178Z,95882.69
2022-12-23T21:15:44.374Z,95873.94
2022-12-23T21:19:44.543Z,95863.84
2022-12-23T21:23:48.146Z,95855.19
2022-12-23T21:27:48.785Z,95860.16
2022-12-23T21:31:49.091Z,95907.50
2022-12-23T21:35:50.037Z,95910.34
2022-12-23T21:39:52.684Z,95908.47
2022-12-23T21:43:53.735Z,95952.44
2022-12-23T21:47:53.939Z,95967.91
2022-12-23T21:51:54.339Z,95960.13
2022-12-23T21:55:57.050Z,95950.44
2022-12-23T21:59:57.395Z,95939.09
2022-12-23T22:04:00.343Z,95973.50
2022-12-23T22:08:00.429Z,95927.41
2022-12-23T22:12:05.193Z,95937.31
2022-12-23T22:16:06.109Z,95974.53
2022-12-23T22:20:06.956Z,95999.59
2022-12-23T22:24:08.138Z,95978.19
2022-12-23T22:28:11.239Z,96006.03
2022-12-23T22:32:11.761Z,96026.94
2022-12-23T22:36:14.395Z,96052.34
2022-12-23T22:40:15.368Z,96033.72
2022-12-23T22:44:18.287Z,96041.16
2022-12-23T22:48:18.612Z,96012.34
2022-12-23T22:52:18.689Z,96019.47
2022-12-23T22:56:21.785Z,96032.53
2022-12-23T23:00:24.835Z,96043.13
2022-12-23T23:04:25.340Z,96042.97
2022-12-23T23:08:25.413Z,96063.00
2022-12-23T23:12:25.488Z,96077.38
2022-12-23T23:16:28.711Z,96075.47
2022-12-23T23:20:28.957Z,96086.25
2022-12-23T23:24:31.365Z,96055.56
2022-12-23T23:28:32.061Z,96097.78
2022-12-23T23:32:35.040Z,96115.84
2022-12-23T23:36:35.286Z,96103.75
2022-12-23T23:40:35.721Z,96068.22
2022-12-23T23:44:35.978Z,96101.25
2022-12-23T23:48:38.738Z,96119.56
2022-12-23T23:52:39.164Z,96102.28
2022-12-23T23:56:39.755Z,96105.38
